Terminal Aerodrome Forecast
Issued by NWS

Home | Current Version | Previous Version | Text Only | Print | Product List | Glossary On
Versions: 1 2 3 4 5 6 7 8 9 10 11 12
301
FTUS46 KSGX 192335
TAFTRM
TAF
KTRM 192335Z 2000/2024 15005KT P6SM FEW050 OVC080
     FM200700 32007KT P6SM BKN200
     FM201600 12005KT 6SM -RA BR BKN035 OVC070
     FM202000 14015G25KT 5SM RA OVC025=

USA.gov is the U.S. government's official web portal to all federal, state and local government web resources and services.